Pagina principale
METAR-TAF:

METAR-TAF

Aeroporti :

Pécs, Ungheria

latitudine: 46-06N, longitudine: 018-14E, altezza: 201 m

Osservazione

Il bollettino è stato emesso 3 ore e 52 minuti fa, alle 16:45 UTC
Vento 2 kt da ovest/sud-ovest
Temperature 24°C
Umidità 41%
Pressione 1006 hPa
Visibilità 10 km o più
nessuna nube inferiore a 1500 m e nessun cumulonembo

METAR: LHPP 251645Z 25002KT CAVOK 24/10 Q1006

Ora: 22:37 (20:37 UTC)

Previsione

Il bollettino è stato emesso 6 ore e 22 minuti fa, alle 14:15 UTC
Previsione valida dal 25 alle 15 UTC al 25 alle 24 UTC
Vento 6 kt da ovest/nord-ovest
Visibilità 10 km o più
nessuna nube inferiore a 1500 m e nessun cumulonembo
Evoluzione graduale
dal 25 alle 18 UTC al 25 alle 21 UTC
Vento 3 kt da direzioni variabili

TAF: LHPP 251415Z 2515/2524 29006KT CAVOK BECMG 2518/2521 VRB03KT

Osservazioni e previsioni meteorologiche di più di 4000 aeroporti (messaggi METAR e TAF).

Le stazioni disponibili sono rappresentate dai dischi gialli e rossi sulla carta.

Puntare il mouse per vedere il nome della stazione.

Clicca sopra per visualizzare le osservazioni e previsioni meteorologiche.

Per cambiare la mappa : fare clic sui pulsanti verdi con una croce nera per ingrandire, il pulsante verde con un trattino per diminuire, o sulla freccia verde per le mappe adiacenti.


METAR-TAF: